createdAt,value
2019-05-11T00:01:41.899Z,22.52
2019-05-11T00:04:10.879Z,24.50
2019-05-11T00:06:39.974Z,24.25
2019-05-11T00:09:09.099Z,25.12
2019-05-11T00:11:38.404Z,23.40
2019-05-11T00:14:07.394Z,22.93
2019-05-11T00:16:36.356Z,25.75
2019-05-11T00:19:05.355Z,25.27
2019-05-11T00:21:34.319Z,23.15
2019-05-11T00:24:03.349Z,29.98
2019-05-11T00:26:32.323Z,23.00
2019-05-11T00:29:01.295Z,25.10
2019-05-11T00:31:30.323Z,25.50
2019-05-11T00:33:59.354Z,25.68
2019-05-11T00:36:28.339Z,24.07
2019-05-11T00:38:57.400Z,25.25
2019-05-11T00:41:26.464Z,25.17
2019-05-11T00:43:57.386Z,24.95
2019-05-11T00:46:26.409Z,25.32
2019-05-11T00:48:55.443Z,25.72
2019-05-11T00:51:24.427Z,27.57
2019-05-11T00:53:53.871Z,26.17
2019-05-11T00:56:22.889Z,26.23
2019-05-11T00:58:51.929Z,27.48
2019-05-11T01:01:20.966Z,26.82
2019-05-11T01:03:49.952Z,28.00
2019-05-11T01:06:18.932Z,27.83
2019-05-11T01:08:48.088Z,27.75
2019-05-11T01:11:17.180Z,26.33
2019-05-11T01:13:46.441Z,27.25
2019-05-11T01:16:15.429Z,28.73
2019-05-11T01:18:44.477Z,28.42
2019-05-11T01:21:13.473Z,27.47
2019-05-11T01:23:42.464Z,28.95
2019-05-11T01:26:11.521Z,28.37
2019-05-11T01:28:40.557Z,29.30
2019-05-11T01:31:09.913Z,29.67
2019-05-11T01:33:38.922Z,28.77
2019-05-11T01:36:07.973Z,29.45
2019-05-11T01:38:37.016Z,28.87
2019-05-11T01:41:06.215Z,29.67
2019-05-11T01:43:35.187Z,29.32
2019-05-11T01:46:04.422Z,32.42
2019-05-11T01:48:33.530Z,29.57
2019-05-11T01:51:02.506Z,28.70
2019-05-11T01:53:31.561Z,31.15
2019-05-11T01:56:00.526Z,32.53
2019-05-11T01:58:29.578Z,33.08
2019-05-11T02:00:58.545Z,34.03
2019-05-11T02:03:27.513Z,32.40
2019-05-11T02:05:56.573Z,30.30
2019-05-11T02:08:25.606Z,31.73
2019-05-11T02:10:54.577Z,32.65
2019-05-11T02:13:23.662Z,31.65
2019-05-11T02:15:52.695Z,30.92
2019-05-11T02:18:21.694Z,34.90
2019-05-11T02:20:50.721Z,32.75
2019-05-11T02:23:19.809Z,31.75
2019-05-11T02:25:48.870Z,31.30
2019-05-11T02:28:17.906Z,31.90
2019-05-11T02:30:47.326Z,32.93
2019-05-11T02:33:16.369Z,35.35
2019-05-11T02:35:45.712Z,33.30
2019-05-11T02:38:14.670Z,35.25
2019-05-11T02:40:43.698Z,34.18
2019-05-11T02:43:12.882Z,32.42
2019-05-11T02:45:42.697Z,34.08
2019-05-11T02:48:12.556Z,34.40
2019-05-11T02:50:42.046Z,33.73
2019-05-11T02:53:11.105Z,35.00
2019-05-11T02:55:41.071Z,35.90
2019-05-11T02:58:10.206Z,34.50
2019-05-11T03:00:41.316Z,32.53
2019-05-11T03:03:10.622Z,35.10
2019-05-11T03:05:39.807Z,35.03
2019-05-11T03:08:08.838Z,33.90
2019-05-11T03:10:38.048Z,34.45
2019-05-11T03:13:07.174Z,36.38
2019-05-11T03:15:36.290Z,36.00
2019-05-11T03:18:05.333Z,34.73
2019-05-11T03:20:34.378Z,35.70
2019-05-11T03:23:03.427Z,32.15
2019-05-11T03:25:32.463Z,36.35
2019-05-11T03:28:01.802Z,33.10
2019-05-11T03:30:30.843Z,33.05
2019-05-11T03:33:00.185Z,34.38
2019-05-11T03:35:29.498Z,35.83
2019-05-11T03:37:58.464Z,36.93
2019-05-11T03:40:27.443Z,35.90
2019-05-11T03:42:56.768Z,36.65
2019-05-11T03:45:25.759Z,36.23
2019-05-11T03:47:54.791Z,36.65
2019-05-11T03:50:23.775Z,33.30
2019-05-11T03:52:52.807Z,35.45
2019-05-11T03:55:21.837Z,34.92
2019-05-11T03:57:50.876Z,36.95
2019-05-11T04:00:20.248Z,38.23
2019-05-11T04:02:49.236Z,38.78
2019-05-11T04:05:18.206Z,35.08
2019-05-11T04:07:47.380Z,36.93
2019-05-11T04:10:16.492Z,37.25
2019-05-11T04:12:45.524Z,38.33
2019-05-11T04:15:14.872Z,39.58
2019-05-11T04:17:43.895Z,34.38
2019-05-11T04:20:13.081Z,39.42
2019-05-11T04:22:42.034Z,39.42
2019-05-11T04:25:11.172Z,39.23
2019-05-11T04:27:40.137Z,38.85
2019-05-11T04:30:09.315Z,41.20
2019-05-11T04:32:38.380Z,40.63
2019-05-11T04:35:07.549Z,40.58
2019-05-11T04:37:36.550Z,41.63
2019-05-11T04:40:06.615Z,42.67
2019-05-11T04:42:53.413Z,38.63
2019-05-11T04:45:07.946Z,38.83
2019-05-11T04:47:36.999Z,39.27
2019-05-11T04:50:07.607Z,43.73
2019-05-11T04:52:36.582Z,38.17
2019-05-11T04:55:05.895Z,38.65
2019-05-11T04:57:35.334Z,40.48
2019-05-11T05:00:05.809Z,35.50
2019-05-11T05:02:34.941Z,40.17
2019-05-11T05:05:05.485Z,36.45
2019-05-11T05:07:34.771Z,41.40
2019-05-11T05:10:04.722Z,40.85
2019-05-11T05:12:33.686Z,42.67
2019-05-11T05:15:02.768Z,48.20
2019-05-11T05:17:31.809Z,46.33
2019-05-11T05:20:00.851Z,49.35
2019-05-11T05:22:29.904Z,45.28
2019-05-11T05:24:59.175Z,51.53
2019-05-11T05:27:28.315Z,46.48
2019-05-11T05:29:57.343Z,50.75
2019-05-11T05:32:26.305Z,47.67
2019-05-11T05:34:55.276Z,51.00
2019-05-11T05:37:24.618Z,50.95
2019-05-11T05:39:54.113Z,52.17
2019-05-11T05:42:23.416Z,51.60
2019-05-11T05:44:52.373Z,56.80
2019-05-11T05:47:21.445Z,57.03
2019-05-11T05:49:50.489Z,56.55
2019-05-11T05:52:19.478Z,57.60
2019-05-11T05:54:48.455Z,59.27
2019-05-11T05:57:17.463Z,60.80
2019-05-11T05:59:46.506Z,60.23
2019-05-11T06:02:15.544Z,58.87
2019-05-11T06:04:44.515Z,60.92
2019-05-11T06:07:13.473Z,60.75
2019-05-11T06:09:42.540Z,60.80
2019-05-11T06:12:11.807Z,58.05
2019-05-11T06:14:40.838Z,58.60
2019-05-11T06:17:10.090Z,58.55
2019-05-11T06:19:39.400Z,63.05
2019-05-11T06:22:08.394Z,59.42
2019-05-11T06:24:37.432Z,61.20
2019-05-11T06:27:06.421Z,63.33
2019-05-11T06:29:35.463Z,57.98
2019-05-11T06:32:04.784Z,58.65
2019-05-11T06:34:33.775Z,60.33
2019-05-11T06:37:02.736Z,62.03
2019-05-11T06:39:31.701Z,64.80
2019-05-11T06:42:00.978Z,64.37
2019-05-11T06:44:30.023Z,65.45
2019-05-11T06:46:59.096Z,65.70
2019-05-11T06:49:28.536Z,67.53
2019-05-11T06:51:57.502Z,63.65
2019-05-11T06:54:26.505Z,63.00
2019-05-11T06:56:55.587Z,60.28
2019-05-11T06:59:24.608Z,59.98
2019-05-11T07:01:53.575Z,61.92
2019-05-11T07:04:22.544Z,62.03
2019-05-11T07:06:51.528Z,62.23
2019-05-11T07:09:20.495Z,63.85
2019-05-11T07:11:49.548Z,60.95
2019-05-11T07:14:21.077Z,61.42
2019-05-11T07:16:49.469Z,64.65
2019-05-11T07:19:18.769Z,55.90
2019-05-11T07:21:47.717Z,54.55
2019-05-11T07:24:16.977Z,56.65
2019-05-11T07:26:46.046Z,55.33
2019-05-11T07:29:15.003Z,51.40
2019-05-11T07:31:43.962Z,51.15
2019-05-11T07:34:13.036Z,49.48
2019-05-11T07:36:41.996Z,47.10
2019-05-11T07:39:11.047Z,45.33
2019-05-11T07:41:40.021Z,44.03
2019-05-11T07:44:10.006Z,43.63
2019-05-11T07:46:39.465Z,41.35
2019-05-11T07:49:08.824Z,42.20
2019-05-11T07:51:38.913Z,38.25
2019-05-11T07:54:08.528Z,37.40
2019-05-11T07:56:39.022Z,38.08
2019-05-11T07:59:08.504Z,29.77
2019-05-11T08:01:38.696Z,31.55
2019-05-11T08:04:08.006Z,33.60
2019-05-11T08:06:39.063Z,31.95
2019-05-11T08:09:08.559Z,31.62
2019-05-11T08:11:38.932Z,31.48
2019-05-11T08:14:08.295Z,27.07
2019-05-11T08:16:39.097Z,28.47
2019-05-11T08:19:10.709Z,33.25
2019-05-11T08:21:40.112Z,30.35
2019-05-11T08:24:09.328Z,29.75
2019-05-11T08:26:38.787Z,32.60
2019-05-11T08:29:08.235Z,30.32
2019-05-11T08:31:38.477Z,27.22
2019-05-11T08:34:08.874Z,27.87
2019-05-11T08:36:38.079Z,31.50
2019-05-11T08:39:07.984Z,29.45
2019-05-11T08:41:38.418Z,23.73
2019-05-11T08:44:08.979Z,23.32
2019-05-11T08:46:38.764Z,23.40
2019-05-11T08:49:08.792Z,26.25
2019-05-11T08:51:38.660Z,22.32
2019-05-11T08:54:09.073Z,21.20
2019-05-11T08:56:38.736Z,22.73
2019-05-11T08:59:08.216Z,24.25
2019-05-11T09:01:39.362Z,25.85
2019-05-11T09:04:09.011Z,22.60
2019-05-11T09:06:38.291Z,23.90
2019-05-11T09:09:08.875Z,20.97
2019-05-11T09:11:38.897Z,28.62
2019-05-11T09:14:08.428Z,20.32
2019-05-11T09:16:38.490Z,22.25
2019-05-11T09:19:08.742Z,19.70
2019-05-11T09:21:38.517Z,24.45
2019-05-11T09:24:08.478Z,16.48
2019-05-11T09:26:38.863Z,15.48
2019-05-11T09:29:08.813Z,16.07
2019-05-11T09:31:38.349Z,17.35
2019-05-11T09:34:09.056Z,21.50
2019-05-11T09:36:38.840Z,24.32
2019-05-11T09:39:08.872Z,20.23
2019-05-11T09:41:38.391Z,17.30
2019-05-11T09:44:08.940Z,27.15
2019-05-11T09:46:38.598Z,15.35
2019-05-11T09:49:08.177Z,14.20
2019-05-11T09:51:38.247Z,17.65
2019-05-11T09:54:08.090Z,20.70
2019-05-11T09:56:38.133Z,15.18
2019-05-11T09:59:08.867Z,14.00
2019-05-11T10:01:38.290Z,16.12
2019-05-11T10:04:08.964Z,14.50
2019-05-11T10:06:38.994Z,13.65
2019-05-11T10:09:08.599Z,12.10
2019-05-11T10:11:39.670Z,12.60
2019-05-11T10:14:08.571Z,10.82
2019-05-11T10:16:38.631Z,13.95
2019-05-11T10:19:08.597Z,14.20
2019-05-11T10:21:38.586Z,13.95
2019-05-11T10:24:08.474Z,12.13
2019-05-11T10:26:38.497Z,13.45
2019-05-11T10:29:08.019Z,13.58
2019-05-11T10:31:38.601Z,13.72
2019-05-11T10:34:08.635Z,15.23
2019-05-11T10:36:38.619Z,16.17
2019-05-11T10:39:09.001Z,13.85
2019-05-11T10:41:38.749Z,13.90
2019-05-11T10:44:08.325Z,14.95
2019-05-11T10:46:38.164Z,12.95
2019-05-11T10:49:08.140Z,13.35
2019-05-11T10:51:38.363Z,13.10
2019-05-11T10:54:08.662Z,13.75
2019-05-11T10:56:38.823Z,10.93
2019-05-11T10:59:08.231Z,14.18
2019-05-11T11:01:38.069Z,11.38
2019-05-11T11:04:08.065Z,12.95
2019-05-11T11:06:38.655Z,11.95
2019-05-11T11:09:09.862Z,13.65
2019-05-11T11:11:38.816Z,10.90
2019-05-11T11:14:08.698Z,13.43
2019-05-11T11:16:42.428Z,14.18
2019-05-11T11:19:08.722Z,14.05
2019-05-11T11:21:38.334Z,10.48
2019-05-11T11:24:07.808Z,11.68
2019-05-11T11:26:38.148Z,18.77
2019-05-11T11:29:08.563Z,9.55
2019-05-11T11:31:38.114Z,13.38
2019-05-11T11:34:08.297Z,12.07
2019-05-11T11:36:37.734Z,9.20
2019-05-11T11:39:08.488Z,8.63
2019-05-11T11:41:38.126Z,12.95
2019-05-11T11:44:07.858Z,9.53
2019-05-11T11:46:50.766Z,10.53
2019-05-11T11:49:08.486Z,23.70
2019-05-11T11:51:38.002Z,10.55
2019-05-11T11:54:08.704Z,12.98
2019-05-11T11:56:38.145Z,10.80
2019-05-11T11:59:08.490Z,11.88
2019-05-11T12:01:38.499Z,9.83
2019-05-11T12:04:08.212Z,13.05
2019-05-11T12:06:38.672Z,8.93
2019-05-11T12:09:09.081Z,8.75
2019-05-11T12:11:38.311Z,8.50
2019-05-11T12:14:08.677Z,7.72
2019-05-11T12:16:38.806Z,6.55
2019-05-11T12:19:08.517Z,5.80
2019-05-11T12:21:38.086Z,7.28
2019-05-11T12:24:08.141Z,8.80
2019-05-11T12:26:38.857Z,12.15
2019-05-11T12:29:08.300Z,7.80
2019-05-11T12:31:38.065Z,6.58
2019-05-11T12:34:08.771Z,7.50
2019-05-11T12:36:38.651Z,6.03
2019-05-11T12:39:08.613Z,5.22
2019-05-11T12:41:38.755Z,5.78
2019-05-11T12:44:08.363Z,7.00
2019-05-11T12:46:39.556Z,6.67
2019-05-11T12:49:08.382Z,11.63
2019-05-11T12:51:38.280Z,5.03
2019-05-11T12:54:08.276Z,4.53
2019-05-11T12:56:38.445Z,6.42
2019-05-11T12:59:08.220Z,7.72
2019-05-11T13:01:38.236Z,5.90
2019-05-11T13:04:09.011Z,9.45
2019-05-11T13:06:38.631Z,9.00
2019-05-11T13:09:08.640Z,6.80
2019-05-11T13:11:38.074Z,6.80
2019-05-11T13:14:08.089Z,6.40
2019-05-11T13:16:38.062Z,6.42
2019-05-11T13:19:08.321Z,10.23
2019-05-11T13:21:38.397Z,8.70
2019-05-11T13:24:08.355Z,8.13
2019-05-11T13:26:38.206Z,9.53
2019-05-11T13:29:07.925Z,7.17
2019-05-11T13:31:38.384Z,9.90
2019-05-11T13:34:08.321Z,10.23
2019-05-11T13:36:38.233Z,8.68
2019-05-11T13:39:08.874Z,7.25
2019-05-11T13:41:38.470Z,10.35
2019-05-11T13:44:07.937Z,8.55
2019-05-11T13:46:38.913Z,8.48
2019-05-11T13:49:08.566Z,9.58
2019-05-11T13:51:38.870Z,7.03
2019-05-11T13:54:08.275Z,8.28
2019-05-11T13:56:38.048Z,13.95
2019-05-11T13:59:10.544Z,8.40
2019-05-11T14:01:39.241Z,8.00
2019-05-11T14:04:08.721Z,9.85
2019-05-11T14:06:37.982Z,7.25
2019-05-11T14:09:08.548Z,6.75
2019-05-11T14:11:39.076Z,6.42
2019-05-11T14:14:08.561Z,7.15
2019-05-11T14:16:38.040Z,6.35
2019-05-11T14:19:08.695Z,9.03
2019-05-11T14:21:38.632Z,6.47
2019-05-11T14:24:08.066Z,6.55
2019-05-11T14:26:38.564Z,7.75
2019-05-11T14:29:08.708Z,11.63
2019-05-11T14:31:38.712Z,6.58
2019-05-11T14:34:09.115Z,8.98
2019-05-11T14:36:38.806Z,11.48
2019-05-11T14:39:08.779Z,9.68
2019-05-11T14:41:38.294Z,10.10
2019-05-11T14:44:08.936Z,8.25
2019-05-11T14:46:38.524Z,7.78
2019-05-11T14:49:08.165Z,8.75
2019-05-11T14:51:39.176Z,8.93
2019-05-11T14:54:08.330Z,10.05
2019-05-11T14:56:38.238Z,7.45
2019-05-11T14:59:08.886Z,8.10
2019-05-11T15:01:38.383Z,8.05
2019-05-11T15:04:09.014Z,12.25
2019-05-11T15:06:38.756Z,8.83
2019-05-11T15:09:08.587Z,9.83
2019-05-11T15:11:38.786Z,9.45
2019-05-11T15:14:08.384Z,11.15
2019-05-11T15:16:38.372Z,7.08
2019-05-11T15:19:08.219Z,8.60
2019-05-11T15:21:38.658Z,10.23
2019-05-11T15:24:09.073Z,11.18
2019-05-11T15:26:38.437Z,12.98
2019-05-11T15:29:08.287Z,7.70
2019-05-11T15:31:38.076Z,6.72
2019-05-11T15:34:08.650Z,7.87
2019-05-11T15:36:38.718Z,9.23
2019-05-11T15:39:08.463Z,9.18
2019-05-11T15:41:38.889Z,12.80
2019-05-11T15:44:11.815Z,7.62
2019-05-11T15:46:39.202Z,10.63
2019-05-11T15:49:08.867Z,8.35
2019-05-11T15:51:41.080Z,10.53
2019-05-11T15:54:08.789Z,14.73
2019-05-11T15:56:38.567Z,9.03
2019-05-11T15:59:08.747Z,8.08
2019-05-11T16:01:41.215Z,9.55
2019-05-11T16:04:09.425Z,10.38
2019-05-11T16:06:38.451Z,10.10
2019-05-11T16:09:08.553Z,11.90
2019-05-11T16:11:38.847Z,10.80
2019-05-11T16:14:08.888Z,8.70
2019-05-11T16:16:39.023Z,6.10
2019-05-11T16:19:13.843Z,11.50
2019-05-11T16:21:39.126Z,10.88
2019-05-11T16:24:08.328Z,7.17
2019-05-11T16:26:37.410Z,8.55
2019-05-11T16:29:08.508Z,7.95
2019-05-11T16:31:37.868Z,11.43
2019-05-11T16:34:08.081Z,11.45
2019-05-11T16:36:38.866Z,10.70
2019-05-11T16:39:10.335Z,10.35
2019-05-11T16:41:38.949Z,14.65
2019-05-11T16:44:08.108Z,11.68
2019-05-11T16:46:38.966Z,15.13
2019-05-11T16:49:10.689Z,16.27
2019-05-11T16:51:38.993Z,11.18
2019-05-11T16:54:08.480Z,11.33
2019-05-11T16:56:38.248Z,11.10
2019-05-11T16:59:08.152Z,10.93
2019-05-11T17:01:38.098Z,10.93
2019-05-11T17:04:07.354Z,12.33
2019-05-11T17:06:38.569Z,11.65
2019-05-11T17:09:08.914Z,14.80
2019-05-11T17:11:38.635Z,12.23
2019-05-11T17:14:08.452Z,11.38
2019-05-11T17:16:38.589Z,12.13
2019-05-11T17:19:08.314Z,15.53
2019-05-11T17:21:38.040Z,11.28
2019-05-11T17:24:07.718Z,9.80
2019-05-11T17:26:38.600Z,10.40
2019-05-11T17:29:09.862Z,10.00
2019-05-11T17:31:38.490Z,11.75
2019-05-11T17:34:08.973Z,15.23
2019-05-11T17:36:38.179Z,8.45
2019-05-11T17:39:08.228Z,9.68
2019-05-11T17:41:38.638Z,12.80
2019-05-11T17:44:08.380Z,13.00
2019-05-11T17:46:38.498Z,11.48
2019-05-11T17:49:07.994Z,9.40
2019-05-11T17:51:37.972Z,7.85
2019-05-11T17:54:07.928Z,14.00
2019-05-11T17:56:38.848Z,8.23
2019-05-11T17:59:08.376Z,7.22
2019-05-11T18:01:37.332Z,14.55
2019-05-11T18:04:08.084Z,8.75
2019-05-11T18:06:38.473Z,13.62
2019-05-11T18:09:08.688Z,10.72
2019-05-11T18:11:38.099Z,11.28
2019-05-11T18:14:08.429Z,12.93
2019-05-11T18:16:37.544Z,11.35
2019-05-11T18:19:08.462Z,11.03
2019-05-11T18:21:38.701Z,6.37
2019-05-11T18:24:09.427Z,10.63
2019-05-11T18:26:38.497Z,10.03
2019-05-11T18:29:07.783Z,9.68
2019-05-11T18:31:38.335Z,6.53
2019-05-11T18:34:08.946Z,9.23
2019-05-11T18:36:38.359Z,15.70
2019-05-11T18:39:08.337Z,7.83
2019-05-11T18:41:39.101Z,10.63
2019-05-11T18:44:08.408Z,10.50
2019-05-11T18:46:38.942Z,6.65
2019-05-11T18:49:08.194Z,10.00
2019-05-11T18:51:37.810Z,10.03
2019-05-11T18:54:09.346Z,8.10
2019-05-11T18:56:38.419Z,10.30
2019-05-11T18:59:08.924Z,9.38
2019-05-11T19:01:38.367Z,10.48
2019-05-11T19:04:07.971Z,15.90
2019-05-11T19:06:37.879Z,10.65
2019-05-11T19:09:07.934Z,9.23
2019-05-11T19:11:38.349Z,11.18
2019-05-11T19:14:08.541Z,9.95
2019-05-11T19:16:39.007Z,11.00
2019-05-11T19:19:08.342Z,6.45
2019-05-11T19:21:37.406Z,9.40
2019-05-11T19:24:09.186Z,7.25
2019-05-11T19:26:37.444Z,10.20
2019-05-11T19:29:08.738Z,10.08
2019-05-11T19:31:38.602Z,7.72
2019-05-11T19:34:09.074Z,10.50
2019-05-11T19:36:38.318Z,12.05
2019-05-11T19:39:09.065Z,9.60
2019-05-11T19:41:38.285Z,8.53
2019-05-11T19:44:08.552Z,12.60
2019-05-11T19:46:38.860Z,10.60
2019-05-11T19:49:08.597Z,9.45
2019-05-11T19:51:42.331Z,9.98
2019-05-11T19:54:08.623Z,9.65
2019-05-11T19:56:38.408Z,9.33
2019-05-11T19:59:08.535Z,11.60
2019-05-11T20:01:37.660Z,8.25
2019-05-11T20:04:08.214Z,10.55
2019-05-11T20:06:38.603Z,8.90
2019-05-11T20:09:08.820Z,11.12
2019-05-11T20:11:38.497Z,10.40
2019-05-11T20:14:08.113Z,7.80
2019-05-11T20:16:37.458Z,10.90
2019-05-11T20:19:08.667Z,10.95
2019-05-11T20:21:38.234Z,8.80
2019-05-11T20:24:08.583Z,11.95
2019-05-11T20:26:37.901Z,10.50
2019-05-11T20:29:08.103Z,8.00
2019-05-11T20:31:37.583Z,9.35
2019-05-11T20:34:07.009Z,6.47
2019-05-11T20:36:36.012Z,12.82
2019-05-11T20:39:07.121Z,9.43
2019-05-11T20:41:38.328Z,8.88
2019-05-11T20:44:08.702Z,10.25
2019-05-11T20:46:38.343Z,5.70
2019-05-11T20:49:07.547Z,9.15
2019-05-11T20:51:37.281Z,8.23
2019-05-11T20:54:08.629Z,7.15
2019-05-11T20:56:38.830Z,8.08
2019-05-11T20:59:08.505Z,10.40
2019-05-11T21:01:38.770Z,8.90
2019-05-11T21:04:08.476Z,9.03
2019-05-11T21:06:37.882Z,11.57
2019-05-11T21:09:07.933Z,7.50
2019-05-11T21:11:37.214Z,10.82
2019-05-11T21:14:08.008Z,9.43
2019-05-11T21:16:38.640Z,10.93
2019-05-11T21:19:08.173Z,7.22
2019-05-11T21:21:49.500Z,10.93
2019-05-11T21:24:08.665Z,10.48
2019-05-11T21:26:38.493Z,6.90
2019-05-11T21:29:08.576Z,9.80
2019-05-11T21:31:40.582Z,9.90
2019-05-11T21:34:08.691Z,11.68
2019-05-11T21:36:37.961Z,9.38
2019-05-11T21:39:08.915Z,11.08
2019-05-11T21:41:38.711Z,9.48
2019-05-11T21:44:08.460Z,10.53
2019-05-11T21:46:38.847Z,14.73
2019-05-11T21:49:08.085Z,8.40
2019-05-11T21:51:38.103Z,7.83
2019-05-11T21:54:07.190Z,8.58
2019-05-11T21:56:38.058Z,10.53
2019-05-11T21:59:07.978Z,12.28
2019-05-11T22:01:38.480Z,8.65
2019-05-11T22:04:10.952Z,8.68
2019-05-11T22:06:39.062Z,9.93
2019-05-11T22:09:09.037Z,9.40
2019-05-11T22:11:38.215Z,11.63
2019-05-11T22:14:08.352Z,10.05
2019-05-11T22:16:38.774Z,9.18
2019-05-11T22:19:09.043Z,7.65
2019-05-11T22:21:38.157Z,11.53
2019-05-11T22:24:08.609Z,12.23
2019-05-11T22:26:38.099Z,10.48
2019-05-11T22:29:07.900Z,11.50
2019-05-11T22:31:38.294Z,10.28
2019-05-11T22:34:08.893Z,12.23
2019-05-11T22:36:38.510Z,11.95
2019-05-11T22:39:08.847Z,9.75
2019-05-11T22:41:39.626Z,7.70
2019-05-11T22:44:10.999Z,13.20
2019-05-11T22:46:39.197Z,7.90
2019-05-11T22:49:08.532Z,12.23
2019-05-11T22:51:37.711Z,11.95
2019-05-11T22:54:08.121Z,12.03
2019-05-11T22:56:38.046Z,14.58
2019-05-11T22:59:08.258Z,11.65
2019-05-11T23:01:38.097Z,10.28
2019-05-11T23:04:07.346Z,11.40
2019-05-11T23:06:40.293Z,12.45
2019-05-11T23:09:08.051Z,10.78
2019-05-11T23:11:37.932Z,7.87
2019-05-11T23:14:09.896Z,15.28
2019-05-11T23:16:38.074Z,9.93
2019-05-11T23:19:09.489Z,8.80
2019-05-11T23:21:38.793Z,10.00
2019-05-11T23:24:08.462Z,10.03
2019-05-11T23:26:38.629Z,9.63
2019-05-11T23:29:08.193Z,11.60
2019-05-11T23:31:38.296Z,15.85
2019-05-11T23:34:08.343Z,12.88
2019-05-11T23:36:38.303Z,12.78
2019-05-11T23:39:09.102Z,9.08
2019-05-11T23:41:38.515Z,10.90
2019-05-11T23:44:08.920Z,16.05
2019-05-11T23:46:38.743Z,13.38
2019-05-11T23:49:08.786Z,10.25
2019-05-11T23:51:38.671Z,10.13
2019-05-11T23:54:08.063Z,11.00
2019-05-11T23:56:38.660Z,8.30
2019-05-11T23:59:08.457Z,13.68
